Time,TemperatureF,DewpointF,PressureIn,WindDirection,WindDirectionDegrees,WindSpeedMPH,WindSpeedGustMPH,Humidity,HourlyPrecipIn,Conditions,Clouds,dailyrainin,SoftwareType,DateUTC
2016-02-05 00:00:00,57.9,21.3,30.16,NW,313,1.0,5.0,24,0.00,,,0.00,Wunderground v.1.15,2016-02-05 08:00:00,
2016-02-05 00:10:00,57.3,22.7,30.16,NW,313,3.0,3.0,26,0.00,,,0.00,Wunderground v.1.15,2016-02-05 08:10:00,
2016-02-05 00:20:00,57.5,21.9,30.16,NW,313,2.0,3.0,25,0.00,,,0.00,Wunderground v.1.15,2016-02-05 08:20:00,
2016-02-05 00:35:00,57.3,21.7,30.16,NW,313,2.0,3.0,25,0.00,,,0.00,Wunderground v.1.15,2016-02-05 08:35:00,
2016-02-05 00:45:00,56.8,21.3,30.16,NW,313,1.0,3.0,25,0.00,,,0.00,Wunderground v.1.15,2016-02-05 08:45:00,
2016-02-05 00:55:00,56.5,22.0,30.16,NW,313,0.0,3.0,26,0.00,,,0.00,Wunderground v.1.15,2016-02-05 08:55:00,
2016-02-05 01:05:00,56.1,20.7,30.16,NW,313,0.0,1.0,25,0.00,,,0.00,Wunderground v.1.15,2016-02-05 09:05:00,
2016-02-05 01:15:00,55.6,21.2,30.16,NW,313,1.0,1.0,26,0.00,,,0.00,Wunderground v.1.15,2016-02-05 09:15:00,
2016-02-05 01:20:00,55.7,20.4,30.16,NW,313,1.0,1.0,25,0.00,,,0.00,Wunderground v.1.15,2016-02-05 09:20:00,
2016-02-05 01:30:00,55.4,21.0,30.16,NW,313,1.0,2.0,26,0.00,,,0.00,Wunderground v.1.15,2016-02-05 09:30:00,
2016-02-05 01:40:00,55.6,19.3,30.16,NW,313,2.0,3.0,24,0.00,,,0.00,Wunderground v.1.15,2016-02-05 09:40:00,
2016-02-05 01:50:00,56.6,19.2,30.16,NW,313,1.0,2.0,23,0.00,,,0.00,Wunderground v.1.15,2016-02-05 09:50:00,
2016-02-05 02:00:00,57.5,17.8,30.16,NW,313,0.0,2.0,21,0.00,,,0.00,Wunderground v.1.15,2016-02-05 10:00:00,
2016-02-05 02:10:00,57.7,18.0,30.16,NW,313,0.0,0.0,21,0.00,,,0.00,Wunderground v.1.15,2016-02-05 10:10:00,
2016-02-05 02:20:00,57.4,17.7,30.16,NW,313,0.0,0.0,21,0.00,,,0.00,Wunderground v.1.15,2016-02-05 10:20:00,
2016-02-05 02:30:00,57.1,17.5,30.16,NW,313,1.0,1.0,21,0.00,,,0.00,Wunderground v.1.15,2016-02-05 10:30:00,
2016-02-05 02:35:00,57.5,16.7,30.16,NW,313,1.0,2.0,20,0.00,,,0.00,Wunderground v.1.15,2016-02-05 10:35:00,
2016-02-05 02:45:00,57.9,17.0,30.15,NW,313,0.0,2.0,20,0.00,,,0.00,Wunderground v.1.15,2016-02-05 10:45:00,
2016-02-05 02:55:00,58.3,16.2,30.15,NW,313,2.0,3.0,19,0.00,,,0.00,Wunderground v.1.15,2016-02-05 10:55:00,
2016-02-05 03:05:00,58.6,16.4,30.15,NW,313,1.0,2.0,19,0.00,,,0.00,Wunderground v.1.15,2016-02-05 11:05:00,
2016-02-05 03:10:00,58.7,16.5,30.15,NW,313,1.0,1.0,19,0.00,,,0.00,Wunderground v.1.15,2016-02-05 11:10:00,
2016-02-05 03:20:00,58.2,17.3,30.15,NW,313,1.0,1.0,20,0.00,,,0.00,Wunderground v.1.15,2016-02-05 11:20:00,
2016-02-05 03:25:00,57.9,17.0,30.15,NW,313,1.0,3.0,20,0.00,,,0.00,Wunderground v.1.15,2016-02-05 11:25:00,
2016-02-05 03:35:00,57.6,16.8,30.15,NW,313,2.0,4.0,20,0.00,,,0.00,Wunderground v.1.15,2016-02-05 11:35:00,
2016-02-05 03:45:00,58.5,16.3,30.15,NW,313,1.0,4.0,19,0.00,,,0.00,Wunderground v.1.15,2016-02-05 11:45:00,
2016-02-05 03:50:00,58.8,16.6,30.15,NW,313,0.0,4.0,19,0.00,,,0.00,Wunderground v.1.15,2016-02-05 11:50:00,
2016-02-05 04:00:00,59.1,16.8,30.15,NW,313,1.0,4.0,19,0.00,,,0.00,Wunderground v.1.15,2016-02-05 12:00:00,
2016-02-05 04:05:00,59.3,17.0,30.15,NW,313,1.0,4.0,19,0.00,,,0.00,Wunderground v.1.15,2016-02-05 12:05:00,
2016-02-05 04:15:00,59.2,16.9,30.15,NW,313,0.0,1.0,19,0.00,,,0.00,Wunderground v.1.15,2016-02-05 12:15:00,
2016-02-05 04:25:00,59.2,18.1,30.15,NW,313,1.0,2.0,20,0.00,,,0.00,Wunderground v.1.15,2016-02-05 12:25:00,
2016-02-05 04:35:00,59.5,17.1,30.15,NW,313,1.0,4.0,19,0.00,,,0.00,Wunderground v.1.15,2016-02-05 12:35:00,
2016-02-05 04:45:00,59.4,18.3,30.16,NW,313,0.0,4.0,20,0.00,,,0.00,Wunderground v.1.15,2016-02-05 12:45:00,
2016-02-05 04:55:00,59.6,17.2,30.16,NW,315,1.0,4.0,19,0.00,,,0.00,Wunderground v.1.15,2016-02-05 12:55:00,
2016-02-05 05:05:00,59.7,17.3,30.16,NW,316,0.0,2.0,19,0.00,,,0.00,Wunderground v.1.15,2016-02-05 13:05:00,
2016-02-05 05:10:00,59.9,17.5,30.16,NW,315,0.0,0.0,19,0.00,,,0.00,Wunderground v.1.15,2016-02-05 13:10:00,
2016-02-05 05:20:00,60.2,17.7,30.16,NW,321,1.0,1.0,19,0.00,,,0.00,Wunderground v.1.15,2016-02-05 13:20:00,
2016-02-05 05:25:00,59.7,18.5,30.16,NW,321,1.0,1.0,20,0.00,,,0.00,Wunderground v.1.15,2016-02-05 13:25:00,
2016-02-05 05:35:00,60.0,17.6,30.17,NW,317,3.0,3.0,19,0.00,,,0.00,Wunderground v.1.15,2016-02-05 13:35:00,
2016-02-05 05:45:00,61.0,17.1,30.17,SE,130,2.0,5.0,18,0.00,,,0.00,Wunderground v.1.15,2016-02-05 13:45:00,
2016-02-05 05:55:00,60.1,18.8,30.17,SE,128,1.0,3.0,20,0.00,,,0.00,Wunderground v.1.15,2016-02-05 13:55:00,
2016-02-05 06:05:00,59.8,18.6,30.18,SE,126,2.0,5.0,20,0.00,,,0.00,Wunderground v.1.15,2016-02-05 14:05:00,
2016-02-05 06:15:00,59.0,17.9,30.18,SE,126,2.0,3.0,20,0.00,,,0.00,Wunderground v.1.15,2016-02-05 14:15:00,
2016-02-05 06:25:00,60.3,16.6,30.18,ESE,123,2.0,3.0,18,0.00,,,0.00,Wunderground v.1.15,2016-02-05 14:25:00,
2016-02-05 06:35:00,60.4,16.6,30.19,ESE,119,2.0,4.0,18,0.00,,,0.00,Wunderground v.1.15,2016-02-05 14:35:00,
2016-02-05 06:45:00,60.4,17.9,30.20,ESE,113,3.0,4.0,19,0.00,,,0.00,Wunderground v.1.15,2016-02-05 14:45:00,
2016-02-05 06:50:00,60.2,17.7,30.20,ESE,113,2.0,2.0,19,0.00,,,0.00,Wunderground v.1.15,2016-02-05 14:50:00,
2016-02-05 07:00:00,59.7,18.5,30.20,ESE,113,1.0,4.0,20,0.00,,,0.00,Wunderground v.1.15,2016-02-05 15:00:00,
2016-02-05 07:05:00,59.4,19.4,30.20,ESE,113,1.0,4.0,21,0.00,,,0.00,Wunderground v.1.15,2016-02-05 15:05:00,
2016-02-05 07:10:00,58.9,21.1,30.20,ESE,113,1.0,3.0,23,0.00,,,0.00,Wunderground v.1.15,2016-02-05 15:10:00,
2016-02-05 07:15:00,58.6,19.8,30.21,ESE,113,2.0,3.0,22,0.00,,,0.00,Wunderground v.1.15,2016-02-05 15:15:00,
2016-02-05 07:25:00,58.8,21.0,30.21,ESE,113,0.0,2.0,23,0.00,,,0.00,Wunderground v.1.15,2016-02-05 15:25:00,
2016-02-05 07:30:00,59.1,21.3,30.21,ESE,113,1.0,1.0,23,0.00,,,0.00,Wunderground v.1.15,2016-02-05 15:30:00,
2016-02-05 07:40:00,60.0,21.0,30.21,ESE,114,2.0,2.0,22,0.00,,,0.00,Wunderground v.1.15,2016-02-05 15:40:00,
2016-02-05 07:45:00,60.4,23.4,30.21,ESE,114,2.0,4.0,24,0.00,,,0.00,Wunderground v.1.15,2016-02-05 15:45:00,
2016-02-05 07:55:00,60.8,22.7,30.21,WSW,244,2.0,4.0,23,0.00,,,0.00,Wunderground v.1.15,2016-02-05 15:55:00,
2016-02-05 08:05:00,62.3,20.7,30.21,SW,221,2.0,4.0,20,0.00,,,0.00,Wunderground v.1.15,2016-02-05 16:05:00,
2016-02-05 08:10:00,63.4,21.6,30.21,WSW,240,3.0,3.0,20,0.00,,,0.00,Wunderground v.1.15,2016-02-05 16:10:00,
2016-02-05 08:20:00,64.8,22.7,30.20,West,267,3.0,4.0,20,0.00,,,0.00,Wunderground v.1.15,2016-02-05 16:20:00,
2016-02-05 08:25:00,65.5,22.1,30.20,West,279,5.0,5.0,19,0.00,,,0.00,Wunderground v.1.15,2016-02-05 16:25:00,
2016-02-05 08:30:00,66.2,21.4,30.20,WNW,284,5.0,5.0,18,0.00,,,0.00,Wunderground v.1.15,2016-02-05 16:30:00,
2016-02-05 08:40:00,66.9,22.0,30.20,South,186,5.0,5.0,18,0.00,,,0.00,Wunderground v.1.15,2016-02-05 16:40:00,
2016-02-05 08:50:00,67.3,22.3,30.21,North,350,3.0,9.0,18,0.00,,,0.00,Wunderground v.1.15,2016-02-05 16:50:00,
2016-02-05 09:00:00,67.7,21.3,30.20,WNW,282,4.0,9.0,17,0.00,,,0.00,Wunderground v.1.15,2016-02-05 17:00:00,
2016-02-05 09:05:00,67.9,21.4,30.20,South,181,5.0,9.0,17,0.00,,,0.00,Wunderground v.1.15,2016-02-05 17:05:00,
2016-02-05 09:10:00,68.3,21.8,30.20,SSW,198,4.0,4.0,17,0.00,,,0.00,Wunderground v.1.15,2016-02-05 17:10:00,
2016-02-05 09:20:00,69.1,22.4,30.20,West,263,4.0,4.0,17,0.00,,,0.00,Wunderground v.1.15,2016-02-05 17:20:00,
2016-02-05 09:30:00,69.8,23.0,30.20,SE,130,3.0,3.0,17,0.00,,,0.00,Wunderground v.1.15,2016-02-05 17:30:00,
2016-02-05 09:40:00,70.9,23.9,30.20,SSE,157,3.0,3.0,17,0.00,,,0.00,Wunderground v.1.15,2016-02-05 17:40:00,
2016-02-05 09:45:00,71.3,22.7,30.20,SSE,155,3.0,4.0,16,0.00,,,0.00,Wunderground v.1.15,2016-02-05 17:45:00,
2016-02-05 09:55:00,72.0,24.8,30.20,SE,140,2.0,12.0,17,0.00,,,0.00,Wunderground v.1.15,2016-02-05 17:55:00,
2016-02-05 10:05:00,72.6,23.8,30.20,SE,142,1.0,12.0,16,0.00,,,0.00,Wunderground v.1.15,2016-02-05 18:05:00,
2016-02-05 10:10:00,72.6,23.8,30.20,South,187,2.0,2.0,16,0.00,,,0.00,Wunderground v.1.15,2016-02-05 18:10:00,
2016-02-05 10:20:00,72.8,25.4,30.20,SSW,195,2.0,2.0,17,0.00,,,0.00,Wunderground v.1.15,2016-02-05 18:20:00,
2016-02-05 10:30:00,73.7,23.1,30.20,South,180,2.0,4.0,15,0.00,,,0.00,Wunderground v.1.15,2016-02-05 18:30:00,
2016-02-05 10:40:00,74.4,23.7,30.20,SSE,167,3.0,3.0,15,0.00,,,0.00,Wunderground v.1.15,2016-02-05 18:40:00,
2016-02-05 10:50:00,74.7,25.5,30.19,SSE,157,2.0,2.0,16,0.00,,,0.00,Wunderground v.1.15,2016-02-05 18:50:00,
2016-02-05 11:00:00,75.2,25.9,30.19,SSE,166,2.0,2.0,16,0.00,,,0.00,Wunderground v.1.15,2016-02-05 19:00:00,
2016-02-05 11:05:00,75.6,24.7,30.19,South,169,2.0,3.0,15,0.00,,,0.00,Wunderground v.1.15,2016-02-05 19:05:00,
2016-02-05 11:10:00,75.9,24.9,30.19,SSE,161,2.0,2.0,15,0.00,,,0.00,Wunderground v.1.15,2016-02-05 19:10:00,
2016-02-05 11:20:00,76.0,25.0,30.19,WNW,286,2.0,2.0,15,0.00,,,0.00,Wunderground v.1.15,2016-02-05 19:20:00,
2016-02-05 11:25:00,75.7,26.3,30.19,WNW,298,3.0,3.0,16,0.00,,,0.00,Wunderground v.1.15,2016-02-05 19:25:00,
2016-02-05 11:35:00,76.1,25.1,30.18,WSW,252,2.0,8.0,15,0.00,,,0.00,Wunderground v.1.15,2016-02-05 19:35:00,
2016-02-05 11:45:00,75.9,23.2,30.17,WSW,245,2.0,8.0,14,0.00,,,0.00,Wunderground v.1.15,2016-02-05 19:45:00,
2016-02-05 11:50:00,76.5,26.9,30.17,WSW,245,2.0,8.0,16,0.00,,,0.00,Wunderground v.1.15,2016-02-05 19:50:00,
2016-02-05 12:00:00,77.5,24.5,30.16,SW,220,2.0,8.0,14,0.00,,,0.00,Wunderground v.1.15,2016-02-05 20:00:00,
2016-02-05 12:10:00,76.1,23.4,30.16,SE,129,6.0,6.0,14,0.00,,,0.00,Wunderground v.1.15,2016-02-05 20:10:00,
2016-02-05 12:20:00,77.5,26.2,30.16,SE,137,2.0,4.0,15,0.00,,,0.00,Wunderground v.1.15,2016-02-05 20:20:00,
2016-02-05 12:30:00,77.1,24.2,30.15,SE,134,4.0,4.0,14,0.00,,,0.00,Wunderground v.1.15,2016-02-05 20:30:00,
2016-02-05 12:35:00,76.7,22.1,30.15,SE,136,5.0,7.0,13,0.00,,,0.00,Wunderground v.1.15,2016-02-05 20:35:00,
2016-02-05 12:45:00,77.0,22.4,30.14,SE,137,5.0,13.0,13,0.00,,,0.00,Wunderground v.1.15,2016-02-05 20:45:00,
2016-02-05 12:55:00,76.6,25.5,30.14,SE,133,6.0,9.0,15,0.00,,,0.00,Wunderground v.1.15,2016-02-05 20:55:00,
2016-02-05 13:00:00,77.6,26.3,30.14,SE,144,5.0,5.0,15,0.00,,,0.00,Wunderground v.1.15,2016-02-05 21:00:00,
2016-02-05 13:20:00,77.5,24.5,30.13,SSE,164,3.0,3.0,14,0.00,,,0.00,Wunderground v.1.15,2016-02-05 21:20:00,
2016-02-05 13:30:00,77.7,24.7,30.12,WNW,283,3.0,6.0,14,0.00,,,0.00,Wunderground v.1.15,2016-02-05 21:30:00,
2016-02-05 13:35:00,77.5,22.7,30.12,SE,134,3.0,14.0,13,0.00,,,0.00,Wunderground v.1.15,2016-02-05 21:35:00,
2016-02-05 13:45:00,78.2,25.1,30.12,SSE,153,3.0,14.0,14,0.00,,,0.00,Wunderground v.1.15,2016-02-05 21:45:00,
2016-02-05 13:50:00,78.5,25.3,30.12,SSE,152,2.0,14.0,14,0.00,,,0.00,Wunderground v.1.15,2016-02-05 21:50:00,
2016-02-05 14:00:00,79.2,25.9,30.12,SE,130,2.0,2.0,14,0.00,,,0.00,Wunderground v.1.15,2016-02-05 22:00:00,
2016-02-05 14:05:00,79.4,26.0,30.12,SSE,168,2.0,2.0,14,0.00,,,0.00,Wunderground v.1.15,2016-02-05 22:05:00,
2016-02-05 14:10:00,78.9,25.6,30.12,South,172,2.0,2.0,14,0.00,,,0.00,Wunderground v.1.15,2016-02-05 22:10:00,
2016-02-05 14:20:00,78.5,27.0,30.12,North,360,2.0,8.0,15,0.00,,,0.00,Wunderground v.1.15,2016-02-05 22:20:00,
2016-02-05 14:30:00,78.0,24.9,30.13,SW,221,3.0,3.0,14,0.00,,,0.00,Wunderground v.1.15,2016-02-05 22:30:00,
2016-02-05 14:35:00,78.5,25.3,30.13,SW,221,2.0,10.0,14,0.00,,,0.00,Wunderground v.1.15,2016-02-05 22:35:00,
2016-02-05 14:45:00,77.1,24.2,30.13,SE,141,4.0,10.0,14,0.00,,,0.00,Wunderground v.1.15,2016-02-05 22:45:00,
2016-02-05 14:55:00,76.6,22.0,30.13,ESE,121,4.0,5.0,13,0.00,,,0.00,Wunderground v.1.15,2016-02-05 22:55:00,
2016-02-05 15:05:00,75.7,24.7,30.12,SE,144,7.0,7.0,15,0.00,,,0.00,Wunderground v.1.15,2016-02-05 23:05:00,
2016-02-05 15:15:00,74.8,24.0,30.12,SE,134,9.0,11.0,15,0.00,,,0.00,Wunderground v.1.15,2016-02-05 23:15:00,
2016-02-05 15:20:00,74.9,25.6,30.12,SE,129,7.0,7.0,16,0.00,,,0.00,Wunderground v.1.15,2016-02-05 23:20:00,
2016-02-05 15:25:00,75.2,25.9,30.12,SE,141,5.0,7.0,16,0.00,,,0.00,Wunderground v.1.15,2016-02-05 23:25:00,
2016-02-05 15:35:00,75.8,26.4,30.12,East,96,3.0,6.0,16,0.00,,,0.00,Wunderground v.1.15,2016-02-05 23:35:00,
2016-02-05 15:45:00,74.2,25.1,30.12,SE,136,7.0,15.0,16,0.00,,,0.00,Wunderground v.1.15,2016-02-05 23:45:00,
2016-02-05 16:00:00,73.9,24.8,30.12,SE,137,6.0,15.0,16,0.00,,,0.00,Wunderground v.1.15,2016-02-06 00:00:00,
2016-02-05 16:10:00,73.8,24.8,30.12,SE,137,4.0,6.0,16,0.00,,,0.00,Wunderground v.1.15,2016-02-06 00:10:00,
2016-02-05 16:20:00,73.5,26.0,30.13,SE,131,3.0,3.0,17,0.00,,,0.00,Wunderground v.1.15,2016-02-06 00:20:00,
2016-02-05 16:30:00,74.0,27.8,30.13,SE,136,1.0,1.0,18,0.00,,,0.00,Wunderground v.1.15,2016-02-06 00:30:00,
2016-02-05 16:35:00,74.1,27.9,30.13,SE,137,1.0,2.0,18,0.00,,,0.00,Wunderground v.1.15,2016-02-06 00:35:00,
2016-02-05 16:40:00,73.9,26.3,30.13,SE,134,1.0,1.0,17,0.00,,,0.00,Wunderground v.1.15,2016-02-06 00:40:00,
2016-02-05 16:50:00,73.0,25.6,30.13,SE,134,1.0,1.0,17,0.00,,,0.00,Wunderground v.1.15,2016-02-06 00:50:00,
2016-02-05 17:00:00,71.6,24.4,30.14,SE,133,1.0,14.0,17,0.00,,,0.00,Wunderground v.1.15,2016-02-06 01:00:00,
2016-02-05 17:05:00,70.7,25.1,30.14,SE,133,1.0,14.0,18,0.00,,,0.00,Wunderground v.1.15,2016-02-06 01:05:00,
2016-02-05 17:15:00,68.8,26.1,30.15,SE,133,0.0,0.0,20,0.00,,,0.00,Wunderground v.1.15,2016-02-06 01:15:00,
2016-02-05 17:25:00,67.0,24.6,30.15,SE,133,1.0,2.0,20,0.00,,,0.00,Wunderground v.1.15,2016-02-06 01:25:00,
2016-02-05 17:35:00,66.5,24.2,30.15,SE,136,2.0,4.0,20,0.00,,,0.00,Wunderground v.1.15,2016-02-06 01:35:00,
2016-02-05 17:45:00,66.6,23.0,30.15,SE,132,5.0,5.0,19,0.00,,,0.00,Wunderground v.1.15,2016-02-06 01:45:00,
2016-02-05 17:55:00,66.7,23.1,30.15,ENE,74,2.0,5.0,19,0.00,,,0.00,Wunderground v.1.15,2016-02-06 01:55:00,
2016-02-05 18:05:00,66.1,23.8,30.16,ENE,74,1.0,2.0,20,0.00,,,0.00,Wunderground v.1.15,2016-02-06 02:05:00,
2016-02-05 18:10:00,66.0,23.7,30.16,ENE,74,0.0,3.0,20,0.00,,,0.00,Wunderground v.1.15,2016-02-06 02:10:00,
2016-02-05 18:20:00,65.5,23.3,30.16,ENE,74,0.0,0.0,20,0.00,,,0.00,Wunderground v.1.15,2016-02-06 02:20:00,
2016-02-05 18:30:00,64.8,22.7,30.16,ENE,74,0.0,0.0,20,0.00,,,0.00,Wunderground v.1.15,2016-02-06 02:30:00,
2016-02-05 18:40:00,64.0,23.2,30.16,ENE,74,1.0,7.0,21,0.00,,,0.00,Wunderground v.1.15,2016-02-06 02:40:00,
2016-02-05 18:45:00,63.8,23.1,30.17,ENE,74,1.0,7.0,21,0.00,,,0.00,Wunderground v.1.15,2016-02-06 02:45:00,
2016-02-05 18:55:00,63.6,24.0,30.17,ENE,72,1.0,7.0,22,0.00,,,0.00,Wunderground v.1.15,2016-02-06 02:55:00,
2016-02-05 19:00:00,63.5,23.9,30.17,ENE,72,1.0,1.0,22,0.00,,,0.00,Wunderground v.1.15,2016-02-06 03:00:00,
2016-02-05 19:10:00,63.2,22.6,30.17,SE,124,1.0,6.0,21,0.00,,,0.00,Wunderground v.1.15,2016-02-06 03:10:00,
2016-02-05 19:20:00,64.5,22.5,30.17,SE,134,3.0,3.0,20,0.00,,,0.00,Wunderground v.1.15,2016-02-06 03:20:00,